Time;durP1;ratioP1;P1;durP2;ratioP2;P2;SDS_P1;SDS_P2;PMS_P1;PMS_P2;Temp;Humidity;BMP_temperature;BMP_pressure;BME280_temperature;BME280_humidity;BME280_pressure;Samples;Min_cycle;Max_cycle;Signal;HPM_P1;HPM_P2
2022/03/07 17:02:23;;;;;;;3.75;2.50;;;6.40;37.10;;;;;;5072556;27;20566;-57
2022/03/07 17:13:28;;;;;;;4.72;2.08;;;9.00;34.30;;;;;;5099671;27;20600;-50
2022/03/07 17:15:54;;;;;;;3.10;1.97;;;9.30;33.70;;;;;;5094185;28;20176;-50
2022/03/07 17:18:20;;;;;;;7.57;2.33;;;10.10;33.40;;;;;;5090455;28;20493;-51
2022/03/07 17:20:45;;;;;;;2.30;1.87;;;9.80;32.70;;;;;;5093330;28;20248;-51
2022/03/07 17:23:11;;;;;;;3.43;2.67;;;9.90;32.20;;;;;;5111069;28;20191;-50
2022/03/07 17:25:37;;;;;;;4.17;3.03;;;10.00;31.80;;;;;;5111433;28;20595;-51
2022/03/07 17:28:03;;;;;;;6.90;2.10;;;10.00;31.60;;;;;;5099299;28;20439;-51
2022/03/07 17:30:29;;;;;;;3.47;2.27;;;10.00;31.40;;;;;;5090619;28;20466;-51
2022/03/07 17:32:55;;;;;;;3.60;2.50;;;10.00;31.30;;;;;;5090330;28;20985;-51
2022/03/07 17:35:23;;;;;;;2.22;1.33;;;10.00;31.30;;;;;;5090656;28;20172;-51
2022/03/07 17:37:49;;;;;;;3.45;1.90;;;10.00;31.30;;;;;;5089371;28;20532;-51
2022/03/07 17:40:18;;;;;;;2.13;1.70;;;10.00;31.30;;;;;;5089204;28;20172;-51
2022/03/07 17:42:46;;;;;;;4.03;2.97;;;9.90;31.10;;;;;;5090533;28;20466;-51
2022/03/07 17:45:12;;;;;;;2.95;2.50;;;9.90;31.20;;;;;;5090339;28;20165;-51
2022/03/07 17:47:40;;;;;;;3.38;2.10;;;9.80;31.10;;;;;;5090471;28;20199;-50
2022/03/07 17:50:06;;;;;;;5.10;2.97;;;9.80;31.10;;;;;;5089339;28;20250;-50
2022/03/07 17:52:32;;;;;;;3.97;2.58;;;9.70;31.10;;;;;;5090176;28;20206;-50
2022/03/07 17:54:58;;;;;;;3.50;2.30;;;9.70;31.10;;;;;;5090324;28;20259;-50
2022/03/07 17:57:24;;;;;;;7.40;4.80;;;9.60;31.20;;;;;;5090360;28;20703;-50
2022/03/07 17:59:50;;;;;;;5.28;3.60;;;9.50;31.20;;;;;;5088870;28;20524;-50
2022/03/07 18:02:16;;;;;;;5.10;4.07;;;9.40;31.30;;;;;;5090162;28;20164;-50
2022/03/07 18:04:42;;;;;;;6.43;3.53;;;9.50;31.50;;;;;;5090099;28;20418;-50
2022/03/07 18:07:08;;;;;;;6.70;4.80;;;9.40;31.50;;;;;;5090045;28;20161;-51
2022/03/07 18:09:33;;;;;;;4.87;3.63;;;9.40;31.60;;;;;;5089919;28;20167;-51
2022/03/07 18:12:01;;;;;;;4.40;3.00;;;9.30;31.70;;;;;;5089682;28;20477;-51
2022/03/07 18:14:26;;;;;;;3.45;2.25;;;9.30;31.60;;;;;;5089896;28;20171;-50
2022/03/07 18:16:52;;;;;;;5.77;3.10;;;9.20;31.60;;;;;;5089771;28;20590;-51
2022/03/07 18:19:18;;;;;;;9.35;3.20;;;9.20;31.70;;;;;;5088467;28;20175;-50
2022/03/07 18:21:44;;;;;;;3.63;2.80;;;9.20;31.90;;;;;;5089663;28;20176;-51
2022/03/07 18:24:10;;;;;;;4.50;2.57;;;9.10;31.80;;;;;;5079947;28;20211;-51
2022/03/07 18:26:35;;;;;;;3.30;2.38;;;9.10;32.00;;;;;;5076226;28;20222;-51
2022/03/07 18:29:03;;;;;;;4.10;3.13;;;9.10;31.90;;;;;;5076275;28;20179;-51
2022/03/07 18:31:29;;;;;;;4.10;2.92;;;9.10;32.10;;;;;;5076030;28;20278;-51
2022/03/07 18:33:55;;;;;;;4.57;3.80;;;9.00;31.90;;;;;;5076052;28;20280;-50
2022/03/07 18:36:21;;;;;;;3.78;2.72;;;9.00;31.90;;;;;;5076008;28;20936;-50
2022/03/07 18:38:48;;;;;;;6.40;4.57;;;9.00;32.10;;;;;;5076063;28;20169;-51
2022/03/07 18:41:14;;;;;;;4.22;2.88;;;8.90;31.90;;;;;;5075921;28;20911;-51
2022/03/07 18:43:41;;;;;;;5.45;4.30;;;8.80;31.80;;;;;;5074535;28;20218;-50
2022/03/07 18:46:07;;;;;;;2.97;2.63;;;8.80;32.00;;;;;;5074578;28;20195;-51
2022/03/07 18:48:33;;;;;;;2.58;2.10;;;8.80;32.10;;;;;;5074452;28;20180;-50
2022/03/07 18:51:00;;;;;;;4.80;2.50;;;8.80;31.90;;;;;;5075678;28;20232;-50
2022/03/07 18:53:25;;;;;;;2.80;2.60;;;9.60;32.60;;;;;;5075653;28;20335;-50
2022/03/07 18:55:51;;;;;;;6.97;3.10;;;8.70;32.20;;;;;;5074363;28;20270;-50
2022/03/07 18:58:17;;;;;;;2.63;2.15;;;8.70;32.20;;;;;;5075537;28;20175;-51
2022/03/07 19:00:43;;;;;;;3.30;2.50;;;8.70;32.30;;;;;;5075479;28;20180;-51
2022/03/07 19:03:09;;;;;;;4.87;3.37;;;8.60;32.30;;;;;;5075537;28;20202;-50
2022/03/07 19:05:34;;;;;;;4.30;2.87;;;8.60;32.60;;;;;;5075441;28;20169;-51
2022/03/07 19:08:00;;;;;;;2.57;2.10;;;8.50;32.90;;;;;;5074445;28;20181;-51
2022/03/07 19:10:26;;;;;;;4.50;2.78;;;8.50;33.10;;;;;;5075523;28;20508;-50
2022/03/07 19:12:52;;;;;;;4.50;2.67;;;8.50;33.00;;;;;;5075042;28;20223;-50
2022/03/07 19:15:18;;;;;;;5.73;3.37;;;8.50;32.90;;;;;;5075314;28;20171;-51
2022/03/07 19:17:44;;;;;;;4.50;3.70;;;8.40;32.80;;;;;;5075221;28;20172;-50
2022/03/07 19:20:14;;;;;;;7.70;4.73;;;8.40;32.70;;;;;;5073925;28;20563;-50
2022/03/07 19:22:41;;;;;;;4.25;3.05;;;8.40;32.50;;;;;;5075128;28;20930;-50
2022/03/07 19:25:07;;;;;;;6.45;3.50;;;8.40;32.50;;;;;;5075333;28;20179;-50
2022/03/07 19:27:33;;;;;;;5.28;3.50;;;8.40;32.50;;;;;;5075038;28;20221;-50
2022/03/07 19:29:59;;;;;;;5.80;4.13;;;8.30;32.40;;;;;;5073870;28;20179;-51
2022/03/07 19:32:25;;;;;;;7.83;5.10;;;8.30;32.50;;;;;;5074901;28;20208;-50
2022/03/07 19:34:51;;;;;;;4.20;2.30;;;8.20;32.50;;;;;;5073960;28;20704;-50
2022/03/07 19:37:16;;;;;;;6.00;4.90;;;8.20;32.60;;;;;;5074872;28;20920;-50
2022/03/07 19:39:42;;;;;;;5.23;3.30;;;8.10;32.70;;;;;;5074777;28;20409;-50
2022/03/07 19:42:08;;;;;;;5.50;3.30;;;8.10;32.70;;;;;;5074788;28;20178;-51
2022/03/07 19:44:34;;;;;;;6.57;3.10;;;8.00;32.70;;;;;;5074680;28;20532;-50
2022/03/07 19:46:59;;;;;;;4.83;2.70;;;8.00;32.80;;;;;;5074756;28;20453;-50
2022/03/07 19:49:25;;;;;;;3.80;2.73;;;7.90;33.00;;;;;;5074707;28;20300;-50
2022/03/07 19:51:52;;;;;;;3.43;3.13;;;7.80;33.10;;;;;;5074573;28;20190;-50
2022/03/07 19:54:18;;;;;;;6.50;3.20;;;7.80;33.20;;;;;;5074518;28;20207;-50
2022/03/07 19:56:44;;;;;;;8.90;4.50;;;7.70;33.80;;;;;;5073546;28;20183;-50
2022/03/07 19:59:10;;;;;;;2.60;2.40;;;7.70;33.30;;;;;;5074478;28;20403;-50
2022/03/07 20:01:35;;;;;;;2.83;2.47;;;7.70;33.30;;;;;;5074470;28;20239;-50
2022/03/07 20:04:02;;;;;;;5.57;3.40;;;7.70;33.20;;;;;;5074348;28;20647;-50
2022/03/07 20:06:27;;;;;;;3.47;2.95;;;7.70;33.30;;;;;;5074268;28;20167;-51
2022/03/07 20:08:53;;;;;;;5.87;3.00;;;7.70;33.30;;;;;;5074237;28;20183;-50
2022/03/07 20:11:20;;;;;;;4.53;2.93;;;7.70;33.40;;;;;;5073811;28;20509;-51
2022/03/07 20:13:45;;;;;;;4.20;3.20;;;7.60;33.40;;;;;;5074275;28;20161;-50
2022/03/07 20:16:11;;;;;;;4.20;3.80;;;7.50;33.50;;;;;;5074112;28;20219;-51
2022/03/07 20:18:38;;;;;;;5.00;3.30;;;7.40;33.40;;;;;;5074260;28;20405;-50
2022/03/07 20:21:04;;;;;;;2.75;2.55;;;7.40;33.50;;;;;;5073980;28;20180;-50
2022/03/07 20:23:30;;;;;;;5.35;3.88;;;7.30;33.60;;;;;;5074214;28;20180;-50
2022/03/07 20:25:55;;;;;;;10.27;3.77;;;7.30;33.70;;;;;;5074055;28;20169;-50
2022/03/07 20:28:21;;;;;;;7.33;4.13;;;7.40;33.80;;;;;;5073859;28;20646;-50
2022/03/07 20:30:47;;;;;;;10.80;3.97;;;7.40;33.80;;;;;;5074305;28;20399;-50
2022/03/07 20:33:13;;;;;;;8.70;4.20;;;7.40;33.80;;;;;;5072412;28;20855;-50
2022/03/07 20:35:39;;;;;;;7.03;3.20;;;7.40;34.00;;;;;;5073184;28;20426;-50
2022/03/07 20:38:05;;;;;;;7.22;4.55;;;7.40;34.20;;;;;;5073825;28;20419;-50
2022/03/07 20:40:31;;;;;;;4.63;3.20;;;7.40;34.40;;;;;;5072886;28;20176;-51
2022/03/07 20:42:57;;;;;;;4.50;3.40;;;7.40;34.70;;;;;;5073851;28;20415;-50
2022/03/07 20:45:23;;;;;;;6.43;3.60;;;7.40;35.10;;;;;;5073648;28;20176;-51
2022/03/07 20:47:49;;;;;;;6.30;4.25;;;7.30;35.30;;;;;;5073366;28;20202;-50
2022/03/07 20:50:16;;;;;;;4.90;4.20;;;7.30;35.00;;;;;;5072321;28;20613;-50
2022/03/07 20:52:42;;;;;;;3.28;2.83;;;7.30;34.80;;;;;;5073424;28;20593;-50
2022/03/07 20:55:10;;;;;;;5.60;3.42;;;7.30;34.60;;;;;;5073551;28;20252;-50
2022/03/07 20:57:37;;;;;;;7.00;3.85;;;7.30;34.60;;;;;;5073121;28;20159;-50
2022/03/07 21:00:10;;;;;;;9.85;4.13;;;7.30;34.70;;;;;;5052341;28;20201;-51
2022/03/07 21:02:36;;;;;;;6.40;3.30;;;7.20;34.70;;;;;;5053862;28;20162;-50
2022/03/07 21:05:02;;;;;;;3.50;3.03;;;7.10;34.80;;;;;;5053454;28;20165;-50
2022/03/07 21:07:28;;;;;;;5.05;3.35;;;7.10;34.90;;;;;;5053344;28;20740;-50
2022/03/07 21:09:53;;;;;;;4.67;3.70;;;7.00;34.90;;;;;;5053480;28;20181;-50
2022/03/07 21:12:19;;;;;;;3.83;2.83;;;6.90;35.00;;;;;;5053005;28;20261;-50
2022/03/07 21:14:45;;;;;;;3.77;2.27;;;6.80;34.90;;;;;;5053379;28;20680;-50
2022/03/07 21:17:11;;;;;;;6.50;4.57;;;6.80;35.00;;;;;;5053345;28;20652;-50
2022/03/07 21:19:36;;;;;;;8.40;5.03;;;6.70;35.10;;;;;;5053247;28;20680;-50
2022/03/07 21:22:03;;;;;;;7.30;4.43;;;6.60;35.10;;;;;;5053284;28;20283;-51
2022/03/07 21:24:29;;;;;;;3.05;2.58;;;6.60;35.00;;;;;;5053210;28;20172;-51
2022/03/07 21:26:54;;;;;;;7.93;5.60;;;6.50;34.90;;;;;;5053355;28;20169;-51
2022/03/07 21:29:20;;;;;;;9.07;3.50;;;6.50;35.00;;;;;;5053150;28;20410;-51
2022/03/07 21:31:46;;;;;;;4.00;3.53;;;6.40;34.80;;;;;;5053186;28;20272;-51
2022/03/07 21:34:11;;;;;;;4.83;4.07;;;6.40;34.90;;;;;;5053090;28;20174;-51
2022/03/07 21:36:38;;;;;;;9.40;4.27;;;6.30;35.10;;;;;;5053170;28;20166;-51
2022/03/07 21:39:06;;;;;;;3.33;3.08;;;6.20;35.10;;;;;;5053085;28;20239;-51
2022/03/07 21:41:31;;;;;;;5.00;4.20;;;6.20;35.30;;;;;;5053016;28;20169;-51
2022/03/07 21:44:03;;;;;;;5.07;3.73;;;6.10;35.10;;;;;;5053187;28;20526;-51
2022/03/07 21:46:28;;;;;;;4.30;3.90;;;6.00;35.30;;;;;;5052968;28;20454;-51
2022/03/07 21:48:54;;;;;;;7.27;4.73;;;6.00;35.40;;;;;;5053050;28;20169;-51
2022/03/07 21:51:20;;;;;;;6.13;5.30;;;5.90;35.60;;;;;;5051610;28;20177;-50
2022/03/07 21:53:46;;;;;;;8.53;5.90;;;5.90;35.50;;;;;;5053030;28;20895;-51
2022/03/07 21:56:12;;;;;;;6.13;5.53;;;5.80;35.40;;;;;;5052926;28;20234;-51
2022/03/07 21:58:37;;;;;;;6.30;4.80;;;5.80;35.60;;;;;;5053961;28;20439;-51
2022/03/07 22:01:03;;;;;;;5.80;4.20;;;5.70;35.60;;;;;;5056649;28;20418;-50
2022/03/07 22:03:29;;;;;;;4.43;4.03;;;5.60;35.70;;;;;;5056657;28;20644;-51
2022/03/07 22:05:55;;;;;;;6.65;3.55;;;5.60;35.90;;;;;;5055360;28;20169;-51
2022/03/07 22:08:22;;;;;;;8.10;3.85;;;5.60;35.80;;;;;;5056600;28;20173;-51
2022/03/07 22:10:49;;;;;;;4.47;3.20;;;5.50;35.90;;;;;;5056577;28;20195;-51
2022/03/07 22:13:15;;;;;;;3.85;3.13;;;5.50;36.00;;;;;;5056336;28;20629;-51
2022/03/07 22:15:42;;;;;;;10.50;3.87;;;5.40;36.30;;;;;;5056431;28;20256;-51
2022/03/07 22:18:09;;;;;;;4.63;4.22;;;5.40;36.10;;;;;;5056387;28;20416;-50
2022/03/07 22:20:34;;;;;;;5.47;3.95;;;5.30;36.30;;;;;;5056425;28;20180;-51
2022/03/07 22:23:00;;;;;;;5.03;4.33;;;5.30;36.30;;;;;;5056299;28;20169;-51
2022/03/07 22:25:26;;;;;;;7.63;6.07;;;5.30;36.60;;;;;;5056225;28;20969;-51
2022/03/07 22:27:51;;;;;;;9.90;3.60;;;5.20;36.60;;;;;;5056287;28;20268;-50
2022/03/07 22:30:17;;;;;;;13.40;4.37;;;5.20;36.40;;;;;;5056096;28;20211;-51
2022/03/07 22:32:43;;;;;;;6.60;4.60;;;5.10;36.60;;;;;;5056256;28;20216;-50
2022/03/07 22:35:09;;;;;;;5.83;3.83;;;5.20;36.50;;;;;;5056116;28;20223;-51
2022/03/07 22:37:35;;;;;;;4.75;4.35;;;5.00;36.50;;;;;;5056036;28;20157;-50
2022/03/07 22:40:01;;;;;;;11.93;5.00;;;5.00;36.50;;;;;;5055954;28;20180;-50
2022/03/07 22:42:26;;;;;;;5.23;4.20;;;5.00;36.50;;;;;;5055932;28;20941;-50
2022/03/07 22:44:52;;;;;;;3.87;3.50;;;4.90;36.50;;;;;;5055857;28;20458;-50
2022/03/07 22:47:18;;;;;;;3.20;2.30;;;4.90;36.60;;;;;;5054520;28;20169;-50
2022/03/07 22:49:43;;;;;;;4.77;2.80;;;4.90;36.90;;;;;;5055883;28;20169;-50
2022/03/07 22:52:09;;;;;;;3.27;2.87;;;4.80;36.90;;;;;;5055688;28;20672;-51
2022/03/07 22:54:35;;;;;;;4.57;3.23;;;4.80;36.80;;;;;;5055698;28;20649;-50
2022/03/07 22:57:00;;;;;;;3.43;3.13;;;4.70;36.90;;;;;;5055714;28;20196;-51
2022/03/07 22:59:26;;;;;;;2.77;2.20;;;4.70;36.90;;;;;;5054366;28;20169;-50
2022/03/07 23:01:52;;;;;;;5.57;3.70;;;4.70;36.90;;;;;;5054335;28;20181;-51
2022/03/07 23:04:17;;;;;;;4.17;3.10;;;4.60;37.00;;;;;;5055501;28;20664;-50
2022/03/07 23:09:27;;;;;;;3.60;3.28;;;4.60;36.90;;;;;;5055365;28;20197;-51
2022/03/07 23:11:53;;;;;;;5.70;3.60;;;4.50;37.00;;;;;;5055242;28;20248;-51
2022/03/07 23:14:19;;;;;;;3.10;2.30;;;4.50;37.10;;;;;;5055323;28;20534;-50
2022/03/07 23:16:44;;;;;;;2.40;2.17;;;4.50;37.10;;;;;;5037459;28;20165;-50
2022/03/07 23:19:10;;;;;;;6.97;2.53;;;4.40;37.10;;;;;;5055209;28;20169;-50
2022/03/07 23:21:36;;;;;;;9.90;2.90;;;4.40;37.20;;;;;;5055289;28;20160;-51
2022/03/07 23:24:02;;;;;;;3.50;3.20;;;4.30;37.40;;;;;;5055221;28;20169;-50
2022/03/07 23:26:27;;;;;;;6.10;3.80;;;4.30;37.40;;;;;;5055131;28;20510;-50
2022/03/07 23:28:54;;;;;;;3.00;2.20;;;4.30;37.20;;;;;;5053755;28;20418;-51
2022/03/07 23:31:20;;;;;;;4.60;4.15;;;4.30;37.30;;;;;;5054889;28;20166;-50
2022/03/07 23:33:47;;;;;;;3.28;2.63;;;4.20;37.30;;;;;;5055077;28;20633;-50
2022/03/07 23:36:13;;;;;;;4.45;3.25;;;4.20;37.20;;;;;;5055193;28;20173;-51
2022/03/07 23:38:39;;;;;;;4.27;2.93;;;5.60;37.90;;;;;;5053626;28;20246;-51
2022/03/07 23:41:08;;;;;;;3.53;1.83;;;4.10;37.30;;;;;;5053534;28;20431;-51
2022/03/07 23:43:35;;;;;;;6.53;2.13;;;4.10;37.40;;;;;;5055028;28;20450;-51
2022/03/07 23:46:01;;;;;;;3.72;2.33;;;4.00;37.70;;;;;;5053433;28;20181;-51
2022/03/07 23:48:26;;;;;;;3.80;3.50;;;4.00;37.80;;;;;;5053376;28;20673;-51
2022/03/07 23:50:52;;;;;;;3.77;2.07;;;4.00;37.70;;;;;;5054650;28;20177;-50
2022/03/07 23:53:19;;;;;;;16.92;3.10;;;4.00;37.50;;;;;;5054505;28;20665;-51
2022/03/07 23:55:45;;;;;;;3.67;2.55;;;3.90;37.60;;;;;;5053262;28;20178;-50
2022/03/07 23:58:11;;;;;;;3.70;2.35;;;3.90;37.50;;;;;;5054721;28;20228;-50
